Time;durP1;ratioP1;P1;durP2;ratioP2;P2;SDS_P1;SDS_P2;PMS_P1;PMS_P2;Temp;Humidity;BMP_temperature;BMP_pressure;BME280_temperature;BME280_humidity;BME280_pressure;Samples;Min_cycle;Max_cycle;Signal;HPM_P1;HPM_P2
2021/11/09 00:04:04;;;;;;;4.30;2.90;;;;;;;6.90;80.24;100557.45;226401;1197;139943;-74
2021/11/09 00:09:15;;;;;;;3.30;3.00;;;;;;;6.85;80.68;100561.90;228144;1197;139652;-72
2021/11/09 00:14:25;;;;;;;3.70;3.40;;;;;;;6.85;80.60;100574.98;227039;1198;142261;-72
2021/11/09 00:19:27;;;;;;;3.20;2.80;;;;;;;6.80;80.86;100583.21;226828;1198;140296;-71
2021/11/09 00:24:50;;;;;;;3.10;2.90;;;;;;;6.73;80.76;100581.39;227336;1199;140162;-70
2021/11/09 00:29:53;;;;;;;3.30;3.00;;;;;;;6.70;80.86;100585.77;226710;1198;141773;-72
2021/11/09 00:34:56;;;;;;;2.40;2.20;;;;;;;6.64;80.78;100599.01;227951;1197;139996;-70
2021/11/09 00:39:59;;;;;;;3.80;2.80;;;;;;;6.60;81.15;100604.83;227432;1198;139830;-74
2021/11/09 00:45:05;;;;;;;3.80;3.40;;;;;;;6.59;80.95;100606.33;226550;1198;140350;-72
2021/11/09 00:50:10;;;;;;;5.10;4.60;;;;;;;6.54;81.41;100607.44;226275;1198;140621;-71
2021/11/09 00:55:14;;;;;;;8.20;4.30;;;;;;;6.50;81.39;100613.75;227343;1197;139580;-69
2021/11/09 01:00:22;;;;;;;5.50;4.60;;;;;;;6.52;81.08;100611.77;228064;1197;140470;-74
2021/11/09 01:05:27;;;;;;;7.90;4.60;;;;;;;6.50;81.31;100618.11;227863;1198;139930;-74
2021/11/09 01:10:41;;;;;;;8.60;5.60;;;;;;;6.39;81.06;100631.20;227242;1198;139415;-74
2021/11/09 01:15:49;;;;;;;7.70;6.90;;;;;;;6.33;80.99;100643.16;227324;1198;139660;-73
2021/11/09 01:20:54;;;;;;;11.00;6.80;;;;;;;6.30;81.45;100642.33;227101;1198;141069;-77
2021/11/09 01:25:56;;;;;;;7.10;6.20;;;;;;;6.32;81.29;100650.80;229371;1197;140604;-75
2021/11/09 01:31:10;;;;;;;7.50;6.60;;;;;;;6.36;81.29;100659.15;228923;1197;139996;-69
2021/11/09 01:36:13;;;;;;;10.90;6.20;;;;;;;6.33;80.85;100661.96;229021;1197;140267;-75
2021/11/09 01:41:17;;;;;;;6.80;5.50;;;;;;;6.35;81.39;100661.55;229469;1197;141187;-72
2021/11/09 01:46:20;;;;;;;8.10;7.10;;;;;;;6.41;81.11;100661.70;226844;1198;139776;-72
2021/11/09 01:51:26;;;;;;;8.00;6.60;;;;;;;6.41;81.14;100665.56;228527;1196;140371;-72
2021/11/09 01:56:31;;;;;;;8.20;6.20;;;;;;;6.37;81.05;100665.66;227118;1197;140230;-70
2021/11/09 02:01:48;;;;;;;8.90;6.60;;;;;;;6.39;81.12;100670.77;226601;1197;140705;-69
2021/11/09 02:06:52;;;;;;;8.50;6.10;;;;;;;6.33;81.16;100673.02;227688;1197;140641;-71
2021/11/09 02:11:55;;;;;;;7.50;6.20;;;;;;;6.26;80.94;100680.27;226741;1198;138977;-69
2021/11/09 02:16:59;;;;;;;7.70;6.40;;;;;;;6.21;80.81;100681.73;226546;1198;139857;-71
2021/11/09 02:22:15;;;;;;;9.70;6.60;;;;;;;6.12;80.93;100685.27;226344;1198;139982;-71
2021/11/09 02:27:19;;;;;;;9.80;6.80;;;;;;;6.02;80.89;100695.45;226551;1198;140665;-69
2021/11/09 02:33:03;;;;;;;9.40;6.60;;;;;;;5.97;81.23;100697.97;227286;1197;139729;-74
2021/11/09 02:38:27;;;;;;;7.90;6.10;;;;;;;5.97;80.86;100706.64;226710;1198;139883;-76
2021/11/09 02:44:04;;;;;;;8.20;7.40;;;;;;;5.92;80.72;100709.16;226835;1198;139899;-77
2021/11/09 02:49:31;;;;;;;12.40;6.80;;;;;;;5.84;80.89;100717.95;226422;1198;139975;-78
2021/11/09 02:54:38;;;;;;;7.60;5.90;;;;;;;5.76;80.19;100726.80;227657;1198;140840;-70
2021/11/09 03:10:32;;;;;;;8.50;5.50;;;;;;;5.30;80.04;100744.66;229226;1196;140671;-74
2021/11/09 03:15:37;;;;;;;7.90;6.70;;;;;;;5.25;79.50;100746.49;228074;1198;140687;-73
2021/11/09 03:47:48;;;;;;;6.50;4.60;;;;;;;4.27;78.38;100767.60;228880;1198;139787;-69
2021/11/09 03:53:02;;;;;;;5.90;4.70;;;;;;;4.04;78.60;100776.04;228022;1197;139758;-75
2021/11/09 04:03:26;;;;;;;8.10;6.10;;;;;;;3.93;78.94;100803.52;227712;1197;139572;-69
2021/11/09 04:09:17;;;;;;;11.40;6.70;;;;;;;3.85;78.80;100806.70;226692;1198;140572;-71
2021/11/09 04:14:11;;;;;;;7.00;4.90;;;;;;;3.77;79.05;100807.19;226977;1198;139005;-69
2021/11/09 05:12:57;;;;;;;16.80;9.00;;;;;;;3.71;81.34;100945.98;227869;1197;140109;-67
2021/11/09 05:18:00;;;;;;;15.30;10.00;;;;;;;3.88;81.22;100948.25;228758;1197;140349;-69
2021/11/09 05:23:18;;;;;;;16.50;9.80;;;;;;;4.04;81.59;100957.80;227573;1197;140671;-68
2021/11/09 05:28:31;;;;;;;19.10;10.70;;;;;;;4.20;81.71;100965.27;229511;1197;139049;-69
2021/11/09 05:33:34;;;;;;;14.90;11.20;;;;;;;4.31;81.36;100970.33;228697;1196;140660;-67
2021/11/09 05:39:05;;;;;;;;;;;;;;;;;;;;;
2021/11/09 05:44:08;;;;;;;16.40;10.10;;;;;;;4.39;81.07;100984.56;229130;1196;230271;-68
2021/11/09 05:49:15;;;;;;;16.20;11.30;;;;;;;4.48;81.38;100992.66;227915;1196;141077;-67
2021/11/09 05:54:21;;;;;;;18.30;11.40;;;;;;;4.52;81.28;101000.36;226784;1197;140606;-66
2021/11/09 06:00:05;;;;;;;14.10;8.60;;;;;;;4.49;81.38;101016.00;227360;1197;139883;-65
2021/11/09 06:05:08;;;;;;;15.20;9.00;;;;;;;4.40;81.24;101025.19;228547;1197;140013;-71
2021/11/09 06:10:13;;;;;;;13.40;9.70;;;;;;;4.46;81.29;101034.48;227905;1197;141605;-69
2021/11/09 06:15:20;;;;;;;18.90;13.10;;;;;;;4.49;81.44;101040.02;227675;1197;139564;-67
2021/11/09 06:20:25;;;;;;;17.40;10.00;;;;;;;4.59;81.36;101043.20;226189;1198;139331;-70
2021/11/09 06:25:35;;;;;;;19.10;11.60;;;;;;;4.61;81.34;101050.18;227207;1196;139914;-67
2021/11/09 06:30:57;;;;;;;;;;;;;;;;;;;;;
2021/11/09 06:36:03;;;;;;;18.60;11.30;;;;;;;4.49;81.08;101079.50;226386;1198;140181;-68
2021/11/09 06:41:08;;;;;;;21.00;12.10;;;;;;;4.46;80.98;101090.02;227050;1198;140459;-67
2021/11/09 06:46:13;;;;;;;23.10;14.40;;;;;;;4.45;81.29;101097.73;226375;1197;140093;-69
2021/11/09 06:51:26;;;;;;;;;;;;;;;;;;;;;
2021/11/09 06:56:51;;;;;;;31.80;17.20;;;;;;;4.47;81.43;101122.38;227616;1198;139879;-67
2021/11/09 07:02:08;;;;;;;12.80;11.40;;;;;;;4.59;81.30;101130.36;227849;1197;140102;-67
2021/11/09 07:07:33;;;;;;;18.50;12.10;;;;;;;4.66;81.05;101140.83;227247;1197;140276;-69
2021/11/09 07:12:36;;;;;;;19.10;14.60;;;;;;;4.63;80.77;101159.17;226417;1198;159276;-68
2021/11/09 07:18:01;;;;;;;24.30;14.00;;;;;;;4.57;80.41;101168.11;227972;1197;141583;-70
2021/11/09 07:23:12;;;;;;;25.00;14.40;;;;;;;4.55;81.05;101178.33;228122;1198;140246;-70
2021/11/09 07:28:23;;;;;;;21.80;14.80;;;;;;;4.61;80.86;101179.83;228246;1197;139098;-68
2021/11/09 07:33:32;;;;;;;18.60;12.60;;;;;;;4.69;80.77;101180.91;228954;1197;140687;-68
2021/11/09 07:38:43;;;;;;;20.00;12.40;;;;;;;4.82;80.58;101190.44;228942;1198;140555;-67
2021/11/09 07:43:50;;;;;;;15.20;10.50;;;;;;;4.96;80.60;101196.10;228795;1197;140375;-67
2021/11/09 07:48:57;;;;;;;18.70;12.30;;;;;;;5.12;80.46;101203.60;226862;1197;141231;-67
2021/11/09 07:54:09;;;;;;;18.40;13.50;;;;;;;5.24;80.27;101211.36;226459;1197;153060;-67
2021/11/09 07:59:53;;;;;;;19.70;13.60;;;;;;;5.31;79.95;101218.67;227523;1197;140695;-68
2021/11/09 08:04:53;;;;;;;20.50;12.40;;;;;;;5.48;80.32;101227.98;226225;1197;139573;-69
2021/11/09 08:10:19;;;;;;;17.50;13.50;;;;;;;5.60;79.74;101238.65;228403;1197;142386;-67
2021/11/09 08:15:27;;;;;;;23.10;14.50;;;;;;;5.68;79.70;101248.85;227333;1197;141728;-69
2021/11/09 08:20:52;;;;;;;21.80;14.70;;;;;;;5.68;79.43;101252.36;227171;1197;140296;-71
2021/11/09 08:25:56;;;;;;;36.80;20.60;;;;;;;5.78;79.56;101257.81;227286;1198;139815;-70
2021/11/09 08:31:04;;;;;;;25.20;16.90;;;;;;;5.92;79.63;101253.71;226432;1197;139107;-72
2021/11/09 08:36:22;;;;;;;23.10;16.10;;;;;;;6.00;79.41;101256.52;226398;1198;140514;-71
2021/11/09 08:41:51;;;;;;;32.10;19.40;;;;;;;6.05;79.09;101262.15;226727;1197;141483;-73
2021/11/09 08:46:55;;;;;;;26.00;17.40;;;;;;;6.08;78.84;101274.19;227170;1198;139187;-75
2021/11/09 08:52:11;;;;;;;23.30;15.70;;;;;;;6.19;79.26;101275.98;226913;1198;142537;-71
2021/11/09 09:07:42;;;;;;;18.10;13.80;;;;;;;6.56;79.26;101298.70;227637;1197;139894;-71
2021/11/09 09:13:04;;;;;;;22.80;13.80;;;;;;;6.54;78.16;101304.39;227660;1198;139640;-67
2021/11/09 09:18:07;;;;;;;22.60;14.80;;;;;;;6.54;78.38;101305.29;229499;1196;139560;-68
2021/11/09 09:23:15;;;;;;;22.10;15.00;;;;;;;6.60;78.30;101308.83;227723;1198;141070;-71
2021/11/09 09:28:48;;;;;;;21.40;15.60;;;;;;;6.71;78.60;101318.90;229537;1197;140895;-70
2021/11/09 09:55:35;;;;;;;23.60;13.20;;;;;;;7.34;77.96;101331.23;227296;1197;140203;-68
2021/11/09 10:00:42;;;;;;;19.50;13.80;;;;;;;7.60;78.11;101337.40;226633;1197;141385;-68
2021/11/09 10:05:46;;;;;;;14.30;12.30;;;;;;;7.62;77.92;101341.89;228069;1198;140838;-68
2021/11/09 10:11:16;;;;;;;18.30;13.40;;;;;;;7.64;77.52;101342.50;227500;1197;140413;-68
2021/11/09 10:17:01;;;;;;;15.10;11.00;;;;;;;7.92;77.60;101348.02;227877;1197;246551;-67
2021/11/09 10:22:26;;;;;;;18.30;12.30;;;;;;;8.29;77.42;101340.48;227456;1198;140675;-67
2021/11/09 10:27:35;;;;;;;18.10;12.30;;;;;;;8.50;76.85;101342.98;226501;1198;139756;-66
2021/11/09 10:32:39;;;;;;;15.50;11.10;;;;;;;8.47;76.35;101350.95;226850;1198;140161;-66
2021/11/09 10:37:48;;;;;;;16.90;12.30;;;;;;;8.32;76.15;101354.45;226699;1198;139553;-67
2021/11/09 10:42:59;;;;;;;18.10;12.70;;;;;;;8.40;76.21;101354.83;226275;1198;141200;-66
2021/11/09 10:48:13;;;;;;;15.10;11.80;;;;;;;8.54;75.87;101352.98;226781;1197;139355;-67
2021/11/09 10:53:32;;;;;;;;;;;;;;;;;;;;;
2021/11/09 10:58:56;;;;;;;15.70;10.80;;;;;;;8.82;75.51;101363.23;227284;1198;139278;-66
2021/11/09 11:04:39;;;;;;;16.40;10.70;;;;;;;8.92;75.12;101364.59;227735;1197;139972;-65
2021/11/09 11:10:06;;;;;;;16.40;12.00;;;;;;;9.11;74.91;101369.08;228056;1197;140236;-68
2021/11/09 11:15:29;;;;;;;18.60;13.00;;;;;;;9.18;74.53;101376.10;227588;1196;140439;-65
2021/11/09 11:20:39;;;;;;;17.00;12.10;;;;;;;9.39;74.25;101375.45;228115;1197;139503;-65
2021/11/09 11:25:45;;;;;;;16.80;12.00;;;;;;;9.40;73.71;101380.67;226391;1198;140642;-63
2021/11/09 11:30:50;;;;;;;15.90;10.70;;;;;;;9.40;73.56;101383.34;227780;1198;139633;-66
2021/11/09 11:36:12;;;;;;;15.20;12.00;;;;;;;9.42;73.31;101381.69;229460;1197;139822;-64
2021/11/09 11:41:32;;;;;;;19.20;11.70;;;;;;;9.26;72.93;101385.16;226907;1197;139304;-67
2021/11/09 11:46:41;;;;;;;15.30;11.40;;;;;;;9.06;72.98;101388.15;229547;1197;140671;-67
2021/11/09 11:51:53;;;;;;;19.00;12.60;;;;;;;8.96;73.02;101389.85;229067;1197;141334;-67
2021/11/09 11:57:01;;;;;;;23.90;13.80;;;;;;;8.90;72.86;101385.09;226813;1198;140649;-66
2021/11/09 12:02:10;;;;;;;17.30;12.80;;;;;;;8.93;72.81;101386.13;228016;1198;140122;-67
2021/11/09 12:07:16;;;;;;;20.50;14.10;;;;;;;8.88;72.84;101381.97;226589;1198;139397;-67
2021/11/09 12:13:01;;;;;;;15.80;11.90;;;;;;;8.81;72.53;101384.17;226288;1197;139936;-66
2021/11/09 12:18:48;;;;;;;20.50;12.70;;;;;;;8.79;72.39;101391.09;227931;1197;140928;-68
2021/11/09 12:24:20;;;;;;;15.20;10.20;;;;;;;9.10;72.84;101399.58;226319;1198;140165;-69
2021/11/09 12:29:52;;;;;;;13.50;8.90;;;;;;;9.26;72.08;101401.63;227645;1197;139781;-66
2021/11/09 12:35:12;;;;;;;27.60;16.30;;;;;;;9.23;71.75;101406.62;226119;1199;140429;-66
2021/11/09 12:40:39;;;;;;;14.30;12.30;;;;;;;9.09;71.57;101405.05;226127;1198;139285;-67
2021/11/09 12:51:58;;;;;;;10.80;9.30;;;;;;;8.62;71.85;101405.99;226154;1199;141401;-67
2021/11/09 12:57:16;;;;;;;15.20;9.60;;;;;;;8.52;71.45;101409.58;226300;1200;139051;-67
2021/11/09 13:02:38;;;;;;;14.60;9.10;;;;;;;8.36;71.20;101406.60;226512;1198;140316;-67
2021/11/09 13:07:53;;;;;;;16.20;12.00;;;;;;;8.26;71.62;101407.36;227402;1198;141223;-67
2021/11/09 13:12:58;;;;;;;9.50;8.10;;;;;;;8.24;71.74;101411.34;226882;1198;141365;-68
2021/11/09 13:18:05;;;;;;;10.40;9.00;;;;;;;8.19;71.82;101412.73;227406;1198;139420;-69
2021/11/09 13:23:12;;;;;;;8.80;7.40;;;;;;;8.12;71.57;101412.92;227964;1196;139984;-68
2021/11/09 13:29:09;;;;;;;;;;;;;;;;;;;;;
2021/11/09 13:34:14;;;;;;;11.50;8.00;;;;;;;8.01;71.30;101418.23;229091;1198;139630;-68
2021/11/09 13:39:28;;;;;;;8.30;7.60;;;;;;;7.99;71.55;101424.52;229202;1198;139221;-68
2021/11/09 13:44:33;;;;;;;11.20;8.10;;;;;;;7.93;71.49;101425.81;228175;1198;140581;-67
2021/11/09 13:50:03;;;;;;;7.90;5.30;;;;;;;7.86;71.16;101427.29;229463;1197;139645;-68
2021/11/09 13:55:08;;;;;;;10.40;7.70;;;;;;;7.73;71.21;101421.12;229204;1198;149638;-69
2021/11/09 14:00:32;;;;;;;7.90;6.60;;;;;;;7.68;71.38;101420.02;228192;1197;139715;-67
2021/11/09 14:05:59;;;;;;;8.20;7.00;;;;;;;7.56;71.11;101418.30;227424;1198;139362;-68
2021/11/09 14:13:23;;;;;;;10.00;7.30;;;;;;;7.45;71.26;101413.54;226318;1198;141303;-67
2021/11/09 14:17:17;;;;;;;8.50;6.60;;;;;;;7.34;71.39;101415.52;228194;1198;139482;-67
2021/11/09 14:22:21;;;;;;;13.60;7.40;;;;;;;7.26;71.59;101419.27;227675;1197;139866;-66
2021/11/09 14:27:53;;;;;;;9.70;6.80;;;;;;;7.20;71.67;101427.22;226585;1199;143939;-66
2021/11/09 14:33:36;;;;;;;;;;;;;;;;;;;;;
2021/11/09 14:38:41;;;;;;;5.60;4.80;;;;;;;7.06;72.32;101427.12;227488;1197;139911;-67
2021/11/09 14:44:01;;;;;;;6.50;5.40;;;;;;;6.99;72.18;101417.39;227530;1183;139482;-67
2021/11/09 14:49:12;;;;;;;8.70;6.70;;;;;;;6.90;72.27;101413.82;227147;1198;139756;-65
2021/11/09 14:54:34;;;;;;;9.70;8.30;;;;;;;6.86;72.38;101412.47;227138;1197;142595;-67
2021/11/09 14:59:37;;;;;;;11.00;7.20;;;;;;;6.81;72.89;101414.20;226698;1197;142475;-66
2021/11/09 15:04:52;;;;;;;39.00;21.80;;;;;;;6.77;72.69;101423.84;226588;1198;140634;-67
2021/11/09 15:26:03;;;;;;;14.80;10.80;;;;;;;6.32;72.74;101420.83;227623;1197;142312;-65
2021/11/09 15:31:08;;;;;;;16.00;11.70;;;;;;;6.13;72.68;101416.77;227433;1198;140439;-65
2021/11/09 15:42:20;;;;;;;31.20;20.20;;;;;;;5.63;73.39;101407.80;226929;1198;140027;-66
2021/11/09 15:47:24;;;;;;;26.50;14.30;;;;;;;5.49;73.32;101401.36;229097;1198;141520;-67
2021/11/09 15:52:27;;;;;;;18.00;11.80;;;;;;;5.35;73.53;101402.23;229340;1197;139589;-67
2021/11/09 15:58:00;;;;;;;20.60;13.20;;;;;;;5.20;73.78;101408.06;226805;1196;139486;-67
2021/11/09 16:03:05;;;;;;;18.70;12.40;;;;;;;5.03;73.67;101412.48;228171;1197;139815;-68
2021/11/09 16:08:09;;;;;;;16.50;12.10;;;;;;;4.87;73.99;101414.30;227215;1197;139739;-66
2021/11/09 16:13:16;;;;;;;16.60;11.80;;;;;;;4.80;74.37;101419.13;227128;1190;140052;-66
2021/11/09 16:18:30;;;;;;;;;;;;;;;4.74;74.08;101427.66;226927;1198;140677;-67
2021/11/09 16:23:36;;;;;;;22.20;12.20;;;;;;;4.60;74.49;101432.39;227616;1196;125670;-67
2021/11/09 16:28:40;;;;;;;18.10;11.50;;;;;;;4.54;74.57;101436.24;226471;1196;139397;-66
2021/11/09 16:33:43;;;;;;;21.60;11.20;;;;;;;4.43;74.65;101435.73;226301;1198;139333;-66
2021/11/09 16:38:55;;;;;;;17.00;13.50;;;;;;;4.32;74.58;101443.13;227074;1197;139871;-65
2021/11/09 16:44:30;;;;;;;26.30;18.80;;;;;;;4.26;74.95;101446.49;226294;1198;140682;-67
2021/11/09 16:54:53;;;;;;;;;;;;;;;;;;;;;
2021/11/09 17:11:47;;;;;;;30.30;21.30;;;;;;;3.82;75.73;101471.45;227373;1198;140526;-66
2021/11/09 18:21:37;;;;;;;;;;;;;;;;;;;;;
2021/11/09 18:26:52;;;;;;;;;;;;;;;;;;;;;
2021/11/09 18:31:58;;;;;;;42.90;24.20;;;;;;;3.67;77.84;101498.27;226425;1197;140520;-67
2021/11/09 18:37:07;;;;;;;39.50;25.30;;;;;;;3.68;77.85;101495.09;226790;1197;140218;-67
2021/11/09 18:42:11;;;;;;;51.50;26.70;;;;;;;3.67;77.91;101500.48;227901;1197;140845;-67
2021/11/09 18:47:14;;;;;;;72.00;28.90;;;;;;;3.72;77.99;101496.71;226605;1196;140574;-65
2021/11/09 18:52:21;;;;;;;43.40;25.70;;;;;;;3.72;78.14;101489.44;227324;1196;142236;-66
2021/11/09 18:57:33;;;;;;;44.00;25.00;;;;;;;3.68;78.23;101492.52;228388;1197;139739;-66
2021/11/09 19:03:03;;;;;;;43.30;22.80;;;;;;;3.67;78.31;101488.02;226777;1196;142102;-66
2021/11/09 19:08:33;;;;;;;;;;;;;;;;;;;;;
2021/11/09 19:13:37;;;;;;;49.70;28.10;;;;;;;3.67;78.36;101497.50;227909;1198;140315;-66
2021/11/09 19:18:41;;;;;;;38.50;24.70;;;;;;;3.65;78.41;101500.55;228767;1197;140425;-69
2021/11/09 19:24:25;;;;;;;;;;;;;;;;;;;;;
2021/11/09 19:29:30;;;;;;;41.90;26.40;;;;;;;3.64;78.23;101499.74;228116;1198;151695;-66
2021/11/09 19:34:34;;;;;;;39.40;24.80;;;;;;;3.66;78.36;101502.38;228824;1197;140403;-67
2021/11/09 19:39:39;;;;;;;41.30;24.40;;;;;;;3.66;78.49;101510.42;229154;1198;140925;-67
2021/11/09 19:44:42;;;;;;;38.40;21.00;;;;;;;3.66;78.56;101511.19;229002;1196;139301;-67
2021/11/09 19:49:49;;;;;;;39.10;24.10;;;;;;;3.68;78.28;101512.70;229486;1196;139880;-67
2021/11/09 19:55:09;;;;;;;37.90;24.00;;;;;;;3.68;78.28;101522.91;229441;1197;139521;-67
2021/11/09 20:00:15;;;;;;;34.10;22.50;;;;;;;3.67;78.46;101517.73;227002;1198;139747;-66
2021/11/09 20:05:29;;;;;;;39.60;21.60;;;;;;;3.66;78.38;101512.76;226390;1197;139175;-66
2021/11/09 20:10:44;;;;;;;43.20;21.10;;;;;;;3.66;78.41;101518.42;226567;1197;140679;-66
2021/11/09 20:16:01;;;;;;;41.20;21.40;;;;;;;3.61;78.51;101517.12;228137;1196;139867;-67
2021/11/09 20:21:16;;;;;;;44.50;26.40;;;;;;;3.55;78.62;101518.71;226761;1196;140047;-67
2021/11/09 20:26:20;;;;;;;36.30;20.50;;;;;;;3.52;78.67;101521.87;227125;1198;139723;-67
2021/11/09 20:31:37;;;;;;;36.30;20.50;;;;;;;3.55;78.68;101526.79;226795;1197;140241;-67
2021/11/09 20:36:45;;;;;;;36.50;21.70;;;;;;;3.55;78.67;101525.23;227838;1197;139720;-66
2021/11/09 20:42:00;;;;;;;;;;;;;;;;;;;;;
2021/11/09 20:47:28;;;;;;;40.00;19.40;;;;;;;3.41;78.76;101529.52;226226;1198;140048;-66
2021/11/09 20:52:32;;;;;;;37.70;22.80;;;;;;;3.43;78.67;101530.46;227216;1197;142038;-66
2021/11/09 20:57:38;;;;;;;42.10;25.00;;;;;;;3.40;78.81;101528.39;226802;1196;142397;-66
2021/11/09 21:02:41;;;;;;;41.90;23.80;;;;;;;3.38;78.95;101525.04;226491;1198;141310;-66
2021/11/09 21:07:55;;;;;;;37.50;20.40;;;;;;;3.35;79.09;101528.92;226547;1198;141071;-66
2021/11/09 21:18:27;;;;;;;37.80;21.60;;;;;;;3.37;79.15;101527.46;226718;1198;141757;-67
2021/11/09 21:23:36;;;;;;;42.60;22.80;;;;;;;3.35;79.12;101523.49;226378;1196;140635;-66
2021/11/09 21:28:47;;;;;;;36.40;20.20;;;;;;;3.34;79.35;101520.95;227591;1198;141135;-66
2021/11/09 21:39:21;;;;;;;39.50;23.80;;;;;;;3.32;79.16;101519.53;228012;1197;140331;-66
2021/11/09 21:44:24;;;;;;;42.30;23.60;;;;;;;3.27;79.34;101517.33;228342;1196;139960;-67
2021/11/09 21:49:50;;;;;;;40.60;20.50;;;;;;;3.28;79.18;101511.28;228267;1198;140083;-67
2021/11/09 21:55:21;;;;;;;41.60;24.20;;;;;;;3.34;79.19;101506.52;228889;1196;139991;-66
2021/11/09 22:00:25;;;;;;;41.40;23.50;;;;;;;3.33;79.30;101502.52;229331;1196;140619;-67
2021/11/09 22:05:32;;;;;;;35.90;20.50;;;;;;;3.36;79.28;101498.02;227192;1198;139270;-66
2021/11/09 22:10:38;;;;;;;36.30;20.70;;;;;;;3.40;79.19;101504.02;227574;1197;140325;-66
2021/11/09 22:15:53;;;;;;;30.70;17.60;;;;;;;3.40;79.31;101496.27;228096;1197;139511;-66
2021/11/09 22:21:14;;;;;;;;;;;;;;;;;;;;;
2021/11/09 22:26:48;;;;;;;32.10;18.10;;;;;;;3.30;79.30;101474.05;227106;1198;139309;-66
2021/11/09 22:31:53;;;;;;;30.60;16.80;;;;;;;3.29;79.34;101475.88;227782;1198;140816;-67
2021/11/09 22:37:02;;;;;;;35.50;21.30;;;;;;;3.30;79.66;101457.70;226999;1197;139935;-66
2021/11/09 22:42:10;;;;;;;33.90;19.30;;;;;;;3.29;79.60;101444.41;226523;1196;140974;-67
2021/11/09 22:47:24;;;;;;;;;;;;;;;;;;;;;
2021/11/09 22:52:37;;;;;;;30.30;19.10;;;;;;;3.30;79.92;101422.41;226452;1198;141038;-66
2021/11/09 22:57:40;;;;;;;34.80;19.90;;;;;;;3.31;79.86;101418.41;226598;1198;142773;-65
2021/11/09 23:02:47;;;;;;;33.80;18.70;;;;;;;3.30;79.99;101406.34;226232;1198;141906;-66
2021/11/09 23:07:54;;;;;;;;;;;;;;;3.28;80.03;101395.28;226975;1198;140099;-66
2021/11/09 23:12:58;;;;;;;34.90;19.20;;;;;;;3.27;80.07;101387.63;227114;1198;128843;-66
2021/11/09 23:18:27;;;;;;;40.10;21.50;;;;;;;3.30;80.27;101375.97;226490;1197;141693;-66
2021/11/09 23:23:32;;;;;;;28.40;17.50;;;;;;;3.30;80.33;101359.79;227099;1198;141942;-66
2021/11/09 23:28:44;;;;;;;36.20;19.10;;;;;;;3.23;80.11;101348.87;227995;1198;141356;-66
2021/11/09 23:34:09;;;;;;;41.60;21.90;;;;;;;3.21;79.82;101345.45;227204;1197;139709;-67
2021/11/09 23:39:16;;;;;;;36.10;22.20;;;;;;;3.09;79.75;101341.84;228252;1196;140200;-67
2021/11/09 23:44:20;;;;;;;36.40;23.30;;;;;;;3.00;79.93;101334.21;229029;1198;139910;-67
2021/11/09 23:49:23;;;;;;;42.30;19.90;;;;;;;2.99;80.01;101330.32;229134;1197;139896;-66
2021/11/09 23:54:26;;;;;;;34.50;20.30;;;;;;;3.06;80.00;101335.77;226781;1198;140596;-66
2021/11/09 23:59:29;;;;;;;34.10;20.80;;;;;;;3.05;80.11;101333.11;228490;1197;140598;-66
